createdAt,value
2022-08-27T00:01:00.601Z,23.21
2022-08-27T00:05:03.468Z,23.19
2022-08-27T00:09:05.464Z,23.19
2022-08-27T00:13:07.087Z,23.14
2022-08-27T00:17:08.813Z,23.12
2022-08-27T00:21:10.563Z,23.09
2022-08-27T00:25:13.041Z,23.16
2022-08-27T00:29:14.637Z,23.18
2022-08-27T00:33:16.277Z,23.09
2022-08-27T00:37:18.053Z,23.15
2022-08-27T00:41:20.400Z,23.11
2022-08-27T00:45:23.681Z,22.93
2022-08-27T00:49:32.024Z,22.84
2022-08-27T00:53:35.986Z,22.85
2022-08-27T00:57:40.527Z,22.74
2022-08-27T01:02:03.422Z,22.69
2022-08-27T01:06:10.963Z,22.63
2022-08-27T01:10:21.400Z,22.59
2022-08-27T01:14:23.825Z,22.54
2022-08-27T01:18:32.677Z,22.56
2022-08-27T01:23:25.309Z,22.51
2022-08-27T01:27:31.277Z,22.48
2022-08-27T01:31:32.994Z,22.44
2022-08-27T01:35:35.643Z,22.39
2022-08-27T01:39:42.671Z,22.45
2022-08-27T01:43:46.442Z,22.45
2022-08-27T01:47:48.796Z,22.45
2022-08-27T01:51:50.390Z,22.46
2022-08-27T01:55:54.439Z,22.51
2022-08-27T01:59:57.945Z,22.59
2022-08-27T02:03:59.548Z,22.64
2022-08-27T02:08:01.595Z,22.67
2022-08-27T02:12:05.438Z,22.66
2022-08-27T02:16:07.563Z,22.63
2022-08-27T02:20:11.021Z,22.52
2022-08-27T02:24:12.618Z,22.51
2022-08-27T02:28:14.619Z,22.48
2022-08-27T02:32:20.683Z,22.45
2022-08-27T02:36:32.786Z,22.45
2022-08-27T02:40:34.482Z,22.42
2022-08-27T02:44:36.178Z,22.36
2022-08-27T02:48:38.941Z,22.31
2022-08-27T02:52:41.165Z,22.31
2022-08-27T02:56:42.735Z,22.30
2022-08-27T03:00:45.689Z,22.27
2022-08-27T03:04:47.620Z,22.26
2022-08-27T03:08:52.140Z,22.29
2022-08-27T03:12:54.764Z,22.29
2022-08-27T03:16:56.355Z,22.26
2022-08-27T03:20:58.001Z,22.23
2022-08-27T03:25:02.436Z,22.21
2022-08-27T03:29:04.468Z,22.17
2022-08-27T03:33:06.032Z,22.17
2022-08-27T03:37:07.616Z,22.15
2022-08-27T03:41:09.912Z,22.14
2022-08-27T03:45:12.225Z,22.19
2022-08-27T03:49:13.927Z,22.23
2022-08-27T03:53:23.019Z,22.21
2022-08-27T03:57:24.601Z,22.15
2022-08-27T04:01:26.518Z,22.11
2022-08-27T04:05:28.154Z,22.06
2022-08-27T04:09:29.766Z,22.05
2022-08-27T04:13:31.394Z,21.99
2022-08-27T04:17:33.099Z,21.99
2022-08-27T04:21:35.808Z,21.98
2022-08-27T04:25:42.486Z,21.94
2022-08-27T04:29:44.766Z,21.96
2022-08-27T04:33:50.910Z,21.99
2022-08-27T04:37:52.996Z,21.99
2022-08-27T04:41:57.058Z,22.02
2022-08-27T04:45:58.696Z,22.04
2022-08-27T04:50:00.391Z,22.02
2022-08-27T04:54:04.829Z,22.01
2022-08-27T04:58:06.385Z,22.01
2022-08-27T05:02:11.561Z,22.04
2022-08-27T05:06:13.419Z,22.06
2022-08-27T05:10:15.040Z,22.09
2022-08-27T05:14:17.127Z,22.12
2022-08-27T05:18:18.708Z,22.17
2022-08-27T05:22:20.331Z,22.23
2022-08-27T05:26:22.196Z,22.21
2022-08-27T05:30:23.741Z,22.21
2022-08-27T05:34:26.542Z,22.20
2022-08-27T05:38:30.560Z,22.20
2022-08-27T05:42:32.890Z,22.21
2022-08-27T05:46:36.199Z,22.21
2022-08-27T05:50:43.230Z,22.23
2022-08-27T05:54:44.953Z,22.21
2022-08-27T05:59:07.084Z,22.21
2022-08-27T06:03:12.914Z,22.19
2022-08-27T06:07:15.487Z,22.20
2022-08-27T06:11:20.846Z,22.20
2022-08-27T06:15:22.467Z,22.17
2022-08-27T06:19:24.179Z,22.15
2022-08-27T06:23:27.895Z,22.14
2022-08-27T06:27:29.839Z,22.14
2022-08-27T06:31:32.300Z,22.12
2022-08-27T06:35:36.928Z,22.09
2022-08-27T06:39:39.423Z,22.09
2022-08-27T06:43:42.874Z,22.08
2022-08-27T06:47:44.469Z,22.08
2022-08-27T06:51:47.472Z,22.05
2022-08-27T06:55:49.497Z,22.08
2022-08-27T06:59:51.712Z,22.01
2022-08-27T07:03:55.226Z,21.94
2022-08-27T07:07:59.699Z,21.93
2022-08-27T07:12:01.795Z,21.85
2022-08-27T07:16:08.925Z,21.83
2022-08-27T07:20:12.408Z,21.83
2022-08-27T07:24:14.063Z,21.83
2022-08-27T07:28:15.704Z,21.86
2022-08-27T07:32:18.246Z,21.89
2022-08-27T07:36:21.543Z,21.94
2022-08-27T07:40:23.287Z,21.99
2022-08-27T07:44:25.856Z,22.01
2022-08-27T07:48:27.969Z,22.04
2022-08-27T07:52:33.748Z,22.17
2022-08-27T07:56:35.369Z,22.20
2022-08-27T08:00:37.116Z,22.24
2022-08-27T08:04:39.649Z,22.35
2022-08-27T08:08:41.346Z,22.44
2022-08-27T08:12:45.505Z,22.46
2022-08-27T08:16:47.869Z,22.57
2022-08-27T08:20:58.017Z,22.66
2022-08-27T08:25:00.453Z,22.70
2022-08-27T08:29:04.942Z,22.86
2022-08-27T08:33:06.541Z,22.99
2022-08-27T08:37:08.399Z,23.22
2022-08-27T08:41:28.046Z,23.39
2022-08-27T08:45:37.574Z,23.45
2022-08-27T08:49:49.466Z,23.63
2022-08-27T08:53:57.697Z,23.69
2022-08-27T08:58:31.635Z,23.68
2022-08-27T09:02:33.261Z,23.79
2022-08-27T09:06:46.806Z,23.93
2022-08-27T09:10:58.063Z,24.11
2022-08-27T09:15:05.682Z,24.29
2022-08-27T09:19:07.465Z,24.49
2022-08-27T09:23:25.737Z,24.83
2022-08-27T09:27:27.952Z,25.14
2022-08-27T09:31:29.723Z,25.49
2022-08-27T09:35:46.195Z,25.66
2022-08-27T09:39:52.127Z,25.59
2022-08-27T09:43:59.235Z,25.67
2022-08-27T09:48:06.411Z,25.85
2022-08-27T09:52:09.831Z,25.96
2022-08-27T09:56:21.943Z,26.04
2022-08-27T10:00:39.511Z,26.00
2022-08-27T10:04:50.617Z,25.90
2022-08-27T10:08:57.817Z,25.78
2022-08-27T10:13:10.098Z,25.74
2022-08-27T10:17:39.438Z,25.71
2022-08-27T10:21:44.500Z,25.76
2022-08-27T10:26:08.292Z,25.91
2022-08-27T10:30:20.240Z,25.98
2022-08-27T10:34:37.523Z,26.06
2022-08-27T10:39:02.727Z,26.21
2022-08-27T10:43:28.717Z,26.24
2022-08-27T10:47:42.641Z,26.29
2022-08-27T10:51:58.128Z,26.35
2022-08-27T10:56:09.317Z,26.24
2022-08-27T11:00:18.637Z,26.19
2022-08-27T11:04:25.025Z,25.94
2022-08-27T11:08:32.201Z,25.76
2022-08-27T11:12:38.048Z,25.72
2022-08-27T11:16:52.719Z,25.66
2022-08-27T11:21:07.130Z,25.57
2022-08-27T11:25:33.462Z,25.60
2022-08-27T11:29:45.652Z,25.57
2022-08-27T11:33:50.854Z,25.61
2022-08-27T11:38:18.193Z,25.53
2022-08-27T11:42:42.042Z,25.53
2022-08-27T11:46:47.407Z,25.59
2022-08-27T11:50:55.082Z,25.71
2022-08-27T11:55:21.494Z,25.83
2022-08-27T11:59:26.405Z,25.94
2022-08-27T12:03:33.917Z,25.93
2022-08-27T12:07:39.863Z,25.98
2022-08-27T12:11:55.988Z,25.94
2022-08-27T12:15:58.441Z,25.96
2022-08-27T12:20:25.668Z,25.89
2022-08-27T12:24:50.535Z,25.90
2022-08-27T12:29:34.342Z,25.93
2022-08-27T12:33:43.373Z,25.90
2022-08-27T12:38:12.136Z,25.83
2022-08-27T12:42:19.163Z,25.83
2022-08-27T12:46:20.945Z,25.76
2022-08-27T12:50:26.981Z,25.78
2022-08-27T12:55:04.266Z,25.78
2022-08-27T12:59:39.021Z,25.79
2022-08-27T13:03:47.344Z,25.82
2022-08-27T13:07:51.186Z,25.79
2022-08-27T13:11:56.535Z,25.86
2022-08-27T13:16:02.433Z,25.93
2022-08-27T13:20:04.582Z,25.91
2022-08-27T13:24:07.059Z,25.91
2022-08-27T13:28:14.755Z,25.93
2022-08-27T13:32:16.940Z,25.90
2022-08-27T13:36:31.954Z,25.85
2022-08-27T13:40:51.304Z,25.82
2022-08-27T13:44:57.078Z,25.83
2022-08-27T13:49:00.161Z,25.86
2022-08-27T13:53:25.176Z,25.98
2022-08-27T13:57:31.239Z,26.06
2022-08-27T14:01:33.109Z,26.08
2022-08-27T14:05:36.876Z,26.17
2022-08-27T14:09:46.869Z,26.24
2022-08-27T14:13:55.436Z,26.38
2022-08-27T14:17:57.061Z,26.49
2022-08-27T14:21:59.237Z,26.69
2022-08-27T14:26:01.681Z,26.83
2022-08-27T14:30:06.340Z,27.08
2022-08-27T14:34:08.355Z,27.25
2022-08-27T14:38:22.377Z,27.31
2022-08-27T14:42:23.964Z,27.21
2022-08-27T14:46:35.870Z,27.18
2022-08-27T14:50:43.431Z,27.18
2022-08-27T14:54:45.222Z,27.27
2022-08-27T14:58:47.136Z,27.38
2022-08-27T15:02:49.244Z,27.71
2022-08-27T15:06:50.782Z,27.78
2022-08-27T15:10:54.464Z,27.77
2022-08-27T15:14:56.184Z,27.65
2022-08-27T15:19:00.773Z,27.42
2022-08-27T15:23:03.564Z,27.55
2022-08-27T15:27:05.246Z,27.33
2022-08-27T15:31:06.873Z,27.27
2022-08-27T15:35:13.733Z,27.21
2022-08-27T15:39:15.618Z,27.18
2022-08-27T15:43:17.784Z,27.33
2022-08-27T15:47:19.744Z,27.69
2022-08-27T15:51:27.348Z,27.91
2022-08-27T15:55:34.937Z,28.35
2022-08-27T15:59:37.159Z,28.51
2022-08-27T16:03:41.434Z,28.33
2022-08-27T16:07:44.094Z,28.39
2022-08-27T16:11:45.725Z,28.52
2022-08-27T16:15:47.343Z,28.33
2022-08-27T16:19:49.374Z,27.98
2022-08-27T16:23:50.993Z,27.77
2022-08-27T16:27:53.542Z,27.62
2022-08-27T16:32:00.553Z,27.35
2022-08-27T16:36:03.071Z,27.16
2022-08-27T16:40:04.945Z,27.06
2022-08-27T16:44:06.834Z,27.02
2022-08-27T16:48:27.316Z,26.90
2022-08-27T16:52:29.404Z,26.83
2022-08-27T16:56:36.365Z,26.73
2022-08-27T17:00:39.733Z,26.72
2022-08-27T17:04:42.040Z,26.59
2022-08-27T17:08:48.055Z,26.47
2022-08-27T17:12:51.509Z,26.35
2022-08-27T17:16:53.956Z,26.23
2022-08-27T17:20:58.936Z,26.17
2022-08-27T17:25:01.102Z,26.03
2022-08-27T17:29:03.034Z,25.93
2022-08-27T17:33:04.680Z,25.79
2022-08-27T17:37:06.299Z,25.67
2022-08-27T17:41:33.109Z,25.53
2022-08-27T17:45:35.618Z,25.39
2022-08-27T17:49:37.439Z,25.29
2022-08-27T17:53:47.082Z,25.22
2022-08-27T17:57:48.779Z,25.12
2022-08-27T18:01:50.489Z,25.05
2022-08-27T18:05:52.109Z,24.98
2022-08-27T18:09:55.322Z,24.90
2022-08-27T18:14:04.071Z,24.82
2022-08-27T18:18:06.858Z,24.77
2022-08-27T18:22:08.459Z,24.71
2022-08-27T18:26:14.858Z,24.66
2022-08-27T18:30:16.826Z,24.66
2022-08-27T18:34:20.938Z,24.67
2022-08-27T18:38:22.909Z,24.68
2022-08-27T18:42:24.490Z,24.66
2022-08-27T18:46:26.245Z,24.63
2022-08-27T18:50:28.669Z,24.63
2022-08-27T18:54:30.367Z,24.56
2022-08-27T18:58:31.917Z,24.53
2022-08-27T19:02:33.650Z,24.46
2022-08-27T19:06:36.060Z,24.36
2022-08-27T19:10:37.643Z,24.31
2022-08-27T19:14:39.471Z,24.08
2022-08-27T19:18:42.167Z,24.14
2022-08-27T19:22:44.566Z,24.06
2022-08-27T19:26:46.577Z,23.99
2022-08-27T19:30:48.150Z,23.82
2022-08-27T19:34:49.775Z,23.74
2022-08-27T19:38:52.707Z,23.62
2022-08-27T19:42:54.265Z,23.54
2022-08-27T19:46:56.002Z,23.50
2022-08-27T19:50:57.888Z,23.44
2022-08-27T19:55:15.062Z,23.35
2022-08-27T19:59:21.563Z,23.26
2022-08-27T20:03:23.490Z,23.16
2022-08-27T20:07:25.185Z,23.11
2022-08-27T20:11:26.773Z,23.03
2022-08-27T20:15:28.475Z,22.99
2022-08-27T20:19:30.067Z,22.94
2022-08-27T20:23:31.653Z,22.89
2022-08-27T20:27:33.501Z,22.86
2022-08-27T20:31:35.195Z,22.84
2022-08-27T20:35:38.615Z,22.82
2022-08-27T20:39:40.666Z,22.79
2022-08-27T20:43:42.366Z,22.79
2022-08-27T20:47:46.324Z,22.75
2022-08-27T20:51:51.175Z,22.72
2022-08-27T20:56:04.545Z,22.75
2022-08-27T21:00:22.278Z,22.72
2022-08-27T21:04:23.890Z,22.70
2022-08-27T21:08:25.612Z,22.70
2022-08-27T21:12:29.134Z,22.70
2022-08-27T21:16:30.750Z,22.69
2022-08-27T21:20:32.521Z,22.66
2022-08-27T21:24:34.513Z,22.61
2022-08-27T21:28:38.786Z,22.60
2022-08-27T21:32:40.447Z,22.59
2022-08-27T21:36:42.074Z,22.63
2022-08-27T21:40:43.854Z,22.64
2022-08-27T21:44:45.516Z,22.69
2022-08-27T21:48:58.475Z,22.91
2022-08-27T21:53:00.715Z,22.84
2022-08-27T21:57:04.260Z,22.89
2022-08-27T22:01:06.565Z,22.94
2022-08-27T22:05:09.182Z,22.93
2022-08-27T22:09:10.782Z,22.86
2022-08-27T22:13:13.170Z,22.84
2022-08-27T22:17:15.834Z,22.82
2022-08-27T22:21:17.801Z,22.81
2022-08-27T22:25:20.033Z,22.81
2022-08-27T22:29:21.661Z,22.79
2022-08-27T22:33:23.669Z,22.72
2022-08-27T22:37:25.456Z,22.70
2022-08-27T22:41:27.018Z,22.69
2022-08-27T22:45:29.420Z,22.66
2022-08-27T22:49:31.098Z,22.64
2022-08-27T22:53:32.659Z,22.61
2022-08-27T22:57:35.662Z,22.57
2022-08-27T23:01:37.752Z,22.57
2022-08-27T23:05:41.909Z,22.54
2022-08-27T23:09:43.857Z,22.48
2022-08-27T23:13:45.447Z,22.41
2022-08-27T23:17:46.984Z,22.33
2022-08-27T23:21:48.832Z,22.33
2022-08-27T23:26:09.289Z,22.36
2022-08-27T23:30:11.958Z,22.30
2022-08-27T23:34:13.511Z,22.27
2022-08-27T23:38:16.798Z,22.26
2022-08-27T23:42:18.701Z,22.21
2022-08-27T23:46:20.343Z,22.23
2022-08-27T23:50:26.378Z,22.23
2022-08-27T23:54:36.436Z,22.24
2022-08-27T23:58:38.011Z,22.24
